Flight Track Log - Related Links

Times and Time Zones

All times are in EDT time to prevent confusion due to time zone crossing. See the KCE2 flight status page for this flight to view local times or setup timezone preferences in your user account.

Time Position Orientation Groundspeed Altitude Reporting Facility
EDT Latitude Longitude Course Direction KTS MPH feet Rate Location/Type
Tue 07:22:30 PM 40.3194 -75.1008 16° North 261 300 3,800  Level FlightAware ADS-B
Tue 07:22:34 PM 40.3235 -75.0988 20° North 261 300 3,800  Level FlightAware ADS-B
Tue 07:22:39 PM 40.3295 -75.0947 28° Northeast 261 300 3,800  Level FlightAware ADS-B
Tue 07:22:44 PM 40.3343 -75.0903 35° Northeast 262 302 3,800  Level FlightAware ADS-B
Tue 07:22:56 PM 40.3445 -75.0776 43° Northeast 262 302 3,800  Level FlightAware ADS-B
Tue 07:23:11 PM 40.3574 -75.0598 46° Northeast 263 303 3,800  Level FlightAware ADS-B
Tue 07:23:27 PM 40.3707 -75.0413 47° Northeast 263 303 3,800  Level FlightAware ADS-B
Tue 07:23:42 PM 40.3833 -75.0237 47° Northeast 262 302 3,800  Level FlightAware ADS-B
Tue 07:23:57 PM 40.3957 -75.0063 47° Northeast 261 300 3,800  Level FlightAware ADS-B
Tue 07:24:14 PM 40.4095 -74.9864 48° Northeast 262 302 3,800  Level FlightAware ADS-B
Tue 07:24:18 PM 40.4122 -74.9812 56° Northeast 262 302 3,800  Level FlightAware ADS-B
Tue 07:24:23 PM 40.4153 -74.9747 58° Northeast 263 303 3,800  Level FlightAware ADS-B
Tue 07:24:39 PM 40.4250 -74.9533 59° Northeast 263 303 3,800  Level FlightAware ADS-B
Tue 07:24:54 PM 40.4344 -74.9318 60° Northeast 263 303 3,800  Level FlightAware ADS-B
Tue 07:25:11 PM 40.4450 -74.9077 60° Northeast 264 304 3,800  Level FlightAware ADS-B
Tue 07:25:27 PM 40.4546 -74.8857 60° Northeast 264 304 3,800  Level FlightAware ADS-B
Tue 07:25:43 PM 40.4641 -74.8641 60° Northeast 265 305 3,800  Level FlightAware ADS-B
Tue 07:25:58 PM 40.4735 -74.8423 60° Northeast 265 305 3,800  Level FlightAware ADS-B
Tue 07:26:14 PM 40.4826 -74.8215 60° Northeast 265 305 3,800  Level FlightAware ADS-B
Tue 07:26:30 PM 40.4928 -74.7981 60° Northeast 264 304 3,800  Level FlightAware ADS-B
Tue 07:26:48 PM 40.5032 -74.7741 60° Northeast 265 305 3,800  Level FlightAware ADS-B
Tue 07:27:21 PM 40.5232 -74.7281 60° Northeast 265 305 3,800  Level FlightAware ADS-B
Tue 07:27:40 PM 40.5353 -74.7003 60° Northeast 265 305 3,800  Level FlightAware ADS-B
Tue 07:27:57 PM 40.5453 -74.6771 60° Northeast 264 304 3,800  Level FlightAware ADS-B
Tue 07:28:14 PM 40.5555 -74.6534 60° Northeast 264 304 3,800 -277 Level FlightAware ADS-B
Tue 07:29:02 PM 40.5842 -74.5871 60° Northeast 265 305 3,500 -435 Descending FlightAware ADS-B
Tue 07:29:23 PM 40.5963 -74.5590 60° Northeast 248 285 3,300 -500 Descending FlightAware ADS-B
Tue 07:29:38 PM 40.6047 -74.5394 61° Northeast 242 278 3,200 -353 Descending FlightAware ADS-B
Tue 07:29:57 PM 40.6148 -74.5160 60° Northeast 240 276 3,100 -462 Descending FlightAware ADS-B
Tue 07:30:17 PM 40.6258 -74.4903 61° Northeast 239 275 2,900 -450 Descending FlightAware ADS-B
Tue 07:30:37 PM 40.6366 -74.4653 60° Northeast 238 274 2,800 -575 Descending FlightAware ADS-B
Tue 07:31:30 PM 40.6620 -74.4060 61° Northeast 225 259 2,200 -759 Descending FlightAware ADS-B
Tue 07:31:56 PM 40.6770 -74.3710 61° Northeast 223 257 1,800 -414 Descending FlightAware ADS-B
Tue 07:32:28 PM 40.6910 -74.3400 59° Northeast 215 247 1,800  Level FlightAware ADS-B
Tue 07:34:14 PM 40.7412 -74.2253 60° Northeast 199 229 1,800 41 Level FlightAware ADS-B
Tue 07:34:56 PM 40.7667 -74.1876 48° Northeast 197 227 1,900  Climbing FlightAware ADS-B
Tue 07:35:11 PM 40.7749 -74.1757 48° Northeast 173 199 1,800 -581 Descending FlightAware ADS-B
Tue 07:35:27 PM 40.7831 -74.1638 48° Northeast 169 194 1,600 -766 Descending FlightAware ADS-B
Tue 07:35:58 PM 40.7989 -74.1406 48° Northeast 166 191 1,200 -769 Descending FlightAware ADS-B
Tue 07:36:45 PM 40.8224 -74.1060 48° Northeast 154 177 600 -762 Descending FlightAware ADS-B
Tue 07:37:01 PM 40.8296 -74.0954 43° Northeast 144 166 400 -727 Descending FlightAware ADS-B
Tue 07:37:18 PM 40.8368 -74.0848 48° Northeast 132 152 200 -706 Descending FlightAware ADS-B
Tue 07:37:29 PM 40.8414 -74.0782 47° Northeast 127 146 -1,091 Descending FlightAware ADS-B
Tue 07:44:00 PM 40.8501 -74.0608 57° Northeast  Level Estimated
Tue 07:45:00 PM 40.8501 -74.0608 57° Northeast  Level Estimated
Tue 07:46:00 PM 40.8501 -74.0608 57° Northeast  Level Estimated

Login

Don't have an account? Register now (free) for customized features, flight alerts, and more!